sensor_id;sensor_type;location;lat;lon;timestamp;P1;durP1;ratioP1;P2;durP2;ratioP2
7799;SDS011;3944;47.984;7.960;2022-08-01T00:00:48;1.27;;;1.17;;
7799;SDS011;3944;47.984;7.960;2022-08-01T00:03:15;1.38;;;1.30;;
7799;SDS011;3944;47.984;7.960;2022-08-01T00:05:42;0.98;;;0.98;;
7799;SDS011;3944;47.984;7.960;2022-08-01T00:08:11;1.23;;;1.23;;
7799;SDS011;3944;47.984;7.960;2022-08-01T00:10:38;1.25;;;1.23;;
7799;SDS011;3944;47.984;7.960;2022-08-01T00:13:05;0.95;;;0.95;;
7799;SDS011;3944;47.984;7.960;2022-08-01T00:15:32;1.48;;;1.38;;
7799;SDS011;3944;47.984;7.960;2022-08-01T00:17:59;1.13;;;1.10;;
7799;SDS011;3944;47.984;7.960;2022-08-01T00:20:26;1.45;;;1.35;;
7799;SDS011;3944;47.984;7.960;2022-08-01T00:22:53;1.02;;;1.02;;
7799;SDS011;3944;47.984;7.960;2022-08-01T00:25:21;1.45;;;1.35;;
7799;SDS011;3944;47.984;7.960;2022-08-01T00:27:48;1.50;;;1.40;;
7799;SDS011;3944;47.984;7.960;2022-08-01T00:30:15;1.55;;;1.45;;
7799;SDS011;3944;47.984;7.960;2022-08-01T00:32:42;1.10;;;1.10;;
7799;SDS011;3944;47.984;7.960;2022-08-01T00:35:09;1.48;;;1.38;;
7799;SDS011;3944;47.984;7.960;2022-08-01T00:37:35;1.27;;;1.20;;
7799;SDS011;3944;47.984;7.960;2022-08-01T00:40:03;1.55;;;1.42;;
7799;SDS011;3944;47.984;7.960;2022-08-01T00:42:32;1.13;;;1.10;;
7799;SDS011;3944;47.984;7.960;2022-08-01T00:44:59;1.08;;;1.08;;
7799;SDS011;3944;47.984;7.960;2022-08-01T00:47:25;2.95;;;1.33;;
7799;SDS011;3944;47.984;7.960;2022-08-01T00:49:52;1.30;;;1.27;;
7799;SDS011;3944;47.984;7.960;2022-08-01T00:52:19;1.38;;;1.27;;
7799;SDS011;3944;47.984;7.960;2022-08-01T00:54:46;1.30;;;1.20;;
7799;SDS011;3944;47.984;7.960;2022-08-01T00:57:14;0.80;;;0.80;;
7799;SDS011;3944;47.984;7.960;2022-08-01T00:59:42;1.13;;;1.13;;
7799;SDS011;3944;47.984;7.960;2022-08-01T01:02:09;1.20;;;1.15;;
7799;SDS011;3944;47.984;7.960;2022-08-01T01:04:36;1.00;;;1.00;;
7799;SDS011;3944;47.984;7.960;2022-08-01T01:07:05;1.38;;;1.27;;
7799;SDS011;3944;47.984;7.960;2022-08-01T01:09:38;1.23;;;1.15;;
7799;SDS011;3944;47.984;7.960;2022-08-01T01:12:12;1.50;;;1.40;;
7799;SDS011;3944;47.984;7.960;2022-08-01T01:14:47;1.13;;;1.13;;
7799;SDS011;3944;47.984;7.960;2022-08-01T01:17:21;1.20;;;1.20;;
7799;SDS011;3944;47.984;7.960;2022-08-01T01:19:54;1.33;;;1.33;;
7799;SDS011;3944;47.984;7.960;2022-08-01T01:22:27;1.10;;;1.10;;
7799;SDS011;3944;47.984;7.960;2022-08-01T01:25:17;1.35;;;1.25;;
7799;SDS011;3944;47.984;7.960;2022-08-01T01:27:56;1.48;;;1.38;;
7799;SDS011;3944;47.984;7.960;2022-08-01T01:30:29;1.23;;;1.13;;
7799;SDS011;3944;47.984;7.960;2022-08-01T01:32:59;1.20;;;1.20;;
7799;SDS011;3944;47.984;7.960;2022-08-01T01:35:29;1.45;;;1.35;;
7799;SDS011;3944;47.984;7.960;2022-08-01T01:38:01;2.35;;;1.30;;
7799;SDS011;3944;47.984;7.960;2022-08-01T01:40:33;1.70;;;1.60;;
7799;SDS011;3944;47.984;7.960;2022-08-01T01:43:02;1.30;;;1.30;;
7799;SDS011;3944;47.984;7.960;2022-08-01T01:45:30;1.63;;;1.52;;
7799;SDS011;3944;47.984;7.960;2022-08-01T01:47:57;2.20;;;1.83;;
7799;SDS011;3944;47.984;7.960;2022-08-01T01:50:27;2.20;;;1.20;;
7799;SDS011;3944;47.984;7.960;2022-08-01T01:52:54;1.63;;;1.52;;
7799;SDS011;3944;47.984;7.960;2022-08-01T01:55:22;1.20;;;1.15;;
7799;SDS011;3944;47.984;7.960;2022-08-01T01:57:51;1.70;;;1.60;;
7799;SDS011;3944;47.984;7.960;2022-08-01T02:00:19;1.55;;;1.45;;
7799;SDS011;3944;47.984;7.960;2022-08-01T02:02:48;1.38;;;1.38;;
7799;SDS011;3944;47.984;7.960;2022-08-01T02:05:17;1.70;;;1.60;;
7799;SDS011;3944;47.984;7.960;2022-08-01T02:07:44;1.33;;;1.33;;
7799;SDS011;3944;47.984;7.960;2022-08-01T02:10:11;1.30;;;1.30;;
7799;SDS011;3944;47.984;7.960;2022-08-01T02:12:41;1.67;;;1.58;;
7799;SDS011;3944;47.984;7.960;2022-08-01T02:15:10;1.73;;;1.63;;
7799;SDS011;3944;47.984;7.960;2022-08-01T02:17:40;1.58;;;1.48;;
7799;SDS011;3944;47.984;7.960;2022-08-01T02:20:10;1.70;;;1.60;;
7799;SDS011;3944;47.984;7.960;2022-08-01T02:22:40;1.25;;;1.17;;
7799;SDS011;3944;47.984;7.960;2022-08-01T02:25:10;2.08;;;1.90;;
7799;SDS011;3944;47.984;7.960;2022-08-01T02:27:41;1.95;;;1.85;;
7799;SDS011;3944;47.984;7.960;2022-08-01T02:30:13;1.30;;;1.30;;
7799;SDS011;3944;47.984;7.960;2022-08-01T02:32:43;1.35;;;1.33;;
7799;SDS011;3944;47.984;7.960;2022-08-01T02:35:24;1.50;;;1.40;;
7799;SDS011;3944;47.984;7.960;2022-08-01T02:37:53;1.27;;;1.20;;
7799;SDS011;3944;47.984;7.960;2022-08-01T02:40:22;1.63;;;1.52;;
7799;SDS011;3944;47.984;7.960;2022-08-01T02:42:50;1.73;;;1.63;;
7799;SDS011;3944;47.984;7.960;2022-08-01T02:45:21;1.92;;;1.77;;
7799;SDS011;3944;47.984;7.960;2022-08-01T02:47:51;2.97;;;1.77;;
7799;SDS011;3944;47.984;7.960;2022-08-01T02:50:23;1.70;;;1.60;;
7799;SDS011;3944;47.984;7.960;2022-08-01T02:52:52;1.50;;;1.40;;
7799;SDS011;3944;47.984;7.960;2022-08-01T02:55:21;1.83;;;1.70;;
7799;SDS011;3944;47.984;7.960;2022-08-01T02:57:48;1.42;;;1.33;;
7799;SDS011;3944;47.984;7.960;2022-08-01T03:00:17;1.60;;;1.50;;
7799;SDS011;3944;47.984;7.960;2022-08-01T03:02:45;1.80;;;1.70;;
7799;SDS011;3944;47.984;7.960;2022-08-01T03:05:15;1.50;;;1.42;;
7799;SDS011;3944;47.984;7.960;2022-08-01T03:07:45;1.73;;;1.63;;
7799;SDS011;3944;47.984;7.960;2022-08-01T03:10:12;1.67;;;1.58;;
7799;SDS011;3944;47.984;7.960;2022-08-01T03:12:41;1.90;;;1.80;;
7799;SDS011;3944;47.984;7.960;2022-08-01T03:15:09;1.88;;;1.77;;
7799;SDS011;3944;47.984;7.960;2022-08-01T03:17:38;1.85;;;1.73;;
7799;SDS011;3944;47.984;7.960;2022-08-01T03:20:07;2.85;;;1.73;;
7799;SDS011;3944;47.984;7.960;2022-08-01T03:22:37;1.83;;;1.70;;
7799;SDS011;3944;47.984;7.960;2022-08-01T03:25:08;1.67;;;1.58;;
7799;SDS011;3944;47.984;7.960;2022-08-01T03:27:37;1.30;;;1.20;;
7799;SDS011;3944;47.984;7.960;2022-08-01T03:30:06;1.25;;;1.25;;
7799;SDS011;3944;47.984;7.960;2022-08-01T03:32:35;1.40;;;1.40;;
7799;SDS011;3944;47.984;7.960;2022-08-01T03:35:02;1.70;;;1.60;;
7799;SDS011;3944;47.984;7.960;2022-08-01T03:37:32;1.42;;;1.33;;
7799;SDS011;3944;47.984;7.960;2022-08-01T03:40:04;1.42;;;1.42;;
7799;SDS011;3944;47.984;7.960;2022-08-01T03:42:36;2.53;;;1.65;;
7799;SDS011;3944;47.984;7.960;2022-08-01T03:45:08;1.30;;;1.30;;
7799;SDS011;3944;47.984;7.960;2022-08-01T03:47:40;1.70;;;1.60;;
7799;SDS011;3944;47.984;7.960;2022-08-01T03:50:10;1.75;;;1.65;;
7799;SDS011;3944;47.984;7.960;2022-08-01T03:52:39;2.55;;;1.90;;
7799;SDS011;3944;47.984;7.960;2022-08-01T03:55:12;1.65;;;1.55;;
7799;SDS011;3944;47.984;7.960;2022-08-01T03:57:41;1.98;;;1.85;;
7799;SDS011;3944;47.984;7.960;2022-08-01T04:00:10;2.15;;;1.98;;
7799;SDS011;3944;47.984;7.960;2022-08-01T04:02:38;1.35;;;1.35;;
7799;SDS011;3944;47.984;7.960;2022-08-01T04:05:05;1.65;;;1.55;;
7799;SDS011;3944;47.984;7.960;2022-08-01T04:07:33;1.60;;;1.50;;
7799;SDS011;3944;47.984;7.960;2022-08-01T04:10:02;2.13;;;2.03;;
7799;SDS011;3944;47.984;7.960;2022-08-01T04:12:30;1.90;;;1.80;;
7799;SDS011;3944;47.984;7.960;2022-08-01T04:14:58;1.70;;;1.60;;
7799;SDS011;3944;47.984;7.960;2022-08-01T04:17:25;3.15;;;2.42;;
7799;SDS011;3944;47.984;7.960;2022-08-01T04:19:52;1.80;;;1.70;;
7799;SDS011;3944;47.984;7.960;2022-08-01T04:22:19;1.95;;;1.85;;
7799;SDS011;3944;47.984;7.960;2022-08-01T04:24:46;1.98;;;1.88;;
7799;SDS011;3944;47.984;7.960;2022-08-01T04:27:16;1.60;;;1.50;;
7799;SDS011;3944;47.984;7.960;2022-08-01T04:29:47;2.80;;;1.88;;
7799;SDS011;3944;47.984;7.960;2022-08-01T04:32:17;1.60;;;1.50;;
7799;SDS011;3944;47.984;7.960;2022-08-01T04:34:47;1.90;;;1.75;;
7799;SDS011;3944;47.984;7.960;2022-08-01T04:37:15;1.55;;;1.45;;
7799;SDS011;3944;47.984;7.960;2022-08-01T04:39:44;1.88;;;1.75;;
7799;SDS011;3944;47.984;7.960;2022-08-01T04:42:13;3.15;;;1.92;;
7799;SDS011;3944;47.984;7.960;2022-08-01T04:44:41;2.85;;;1.95;;
7799;SDS011;3944;47.984;7.960;2022-08-01T04:47:09;2.00;;;1.90;;
7799;SDS011;3944;47.984;7.960;2022-08-01T04:49:37;2.30;;;2.10;;
7799;SDS011;3944;47.984;7.960;2022-08-01T04:52:04;1.77;;;1.67;;
7799;SDS011;3944;47.984;7.960;2022-08-01T04:54:32;2.40;;;2.20;;
7799;SDS011;3944;47.984;7.960;2022-08-01T04:57:02;1.70;;;1.60;;
7799;SDS011;3944;47.984;7.960;2022-08-01T04:59:30;2.70;;;2.00;;
7799;SDS011;3944;47.984;7.960;2022-08-01T05:02:06;2.20;;;2.10;;
7799;SDS011;3944;47.984;7.960;2022-08-01T05:04:35;2.72;;;2.53;;
7799;SDS011;3944;47.984;7.960;2022-08-01T05:07:03;2.05;;;1.85;;
7799;SDS011;3944;47.984;7.960;2022-08-01T05:09:30;1.70;;;1.60;;
7799;SDS011;3944;47.984;7.960;2022-08-01T05:11:57;1.90;;;1.60;;
7799;SDS011;3944;47.984;7.960;2022-08-01T05:14:26;2.53;;;2.35;;
7799;SDS011;3944;47.984;7.960;2022-08-01T05:16:53;1.98;;;1.88;;
7799;SDS011;3944;47.984;7.960;2022-08-01T05:19:21;3.78;;;2.33;;
7799;SDS011;3944;47.984;7.960;2022-08-01T05:21:49;2.10;;;1.95;;
7799;SDS011;3944;47.984;7.960;2022-08-01T05:24:17;1.90;;;1.80;;
7799;SDS011;3944;47.984;7.960;2022-08-01T05:26:43;1.90;;;1.80;;
7799;SDS011;3944;47.984;7.960;2022-08-01T05:29:10;2.13;;;1.92;;
7799;SDS011;3944;47.984;7.960;2022-08-01T05:31:37;2.03;;;1.90;;
7799;SDS011;3944;47.984;7.960;2022-08-01T05:34:04;2.05;;;1.95;;
7799;SDS011;3944;47.984;7.960;2022-08-01T05:36:31;1.92;;;1.83;;
7799;SDS011;3944;47.984;7.960;2022-08-01T05:38:59;2.20;;;1.52;;
7799;SDS011;3944;47.984;7.960;2022-08-01T05:41:26;1.80;;;1.70;;
7799;SDS011;3944;47.984;7.960;2022-08-01T05:43:52;2.13;;;2.00;;
7799;SDS011;3944;47.984;7.960;2022-08-01T05:46:19;1.85;;;1.75;;
7799;SDS011;3944;47.984;7.960;2022-08-01T05:48:46;7.20;;;2.35;;
7799;SDS011;3944;47.984;7.960;2022-08-01T05:51:13;1.70;;;1.60;;
7799;SDS011;3944;47.984;7.960;2022-08-01T05:53:40;2.28;;;2.08;;
7799;SDS011;3944;47.984;7.960;2022-08-01T05:56:08;2.80;;;1.33;;
7799;SDS011;3944;47.984;7.960;2022-08-01T05:58:35;1.67;;;1.58;;
7799;SDS011;3944;47.984;7.960;2022-08-01T06:01:02;1.60;;;1.50;;
7799;SDS011;3944;47.984;7.960;2022-08-01T06:03:29;2.00;;;1.90;;
7799;SDS011;3944;47.984;7.960;2022-08-01T06:05:58;3.30;;;2.03;;
7799;SDS011;3944;47.984;7.960;2022-08-01T06:08:25;1.80;;;1.70;;
7799;SDS011;3944;47.984;7.960;2022-08-01T06:10:52;1.40;;;1.30;;
7799;SDS011;3944;47.984;7.960;2022-08-01T06:13:20;1.48;;;1.38;;
7799;SDS011;3944;47.984;7.960;2022-08-01T06:15:47;1.65;;;1.55;;
7799;SDS011;3944;47.984;7.960;2022-08-01T06:18:14;1.80;;;1.70;;
7799;SDS011;3944;47.984;7.960;2022-08-01T06:20:41;3.83;;;2.25;;
7799;SDS011;3944;47.984;7.960;2022-08-01T06:23:08;1.58;;;1.50;;
7799;SDS011;3944;47.984;7.960;2022-08-01T06:25:35;2.20;;;1.67;;
7799;SDS011;3944;47.984;7.960;2022-08-01T06:28:02;1.40;;;1.30;;
7799;SDS011;3944;47.984;7.960;2022-08-01T06:30:30;2.15;;;1.63;;
7799;SDS011;3944;47.984;7.960;2022-08-01T06:32:57;1.83;;;1.70;;
7799;SDS011;3944;47.984;7.960;2022-08-01T06:35:25;1.42;;;1.33;;
7799;SDS011;3944;47.984;7.960;2022-08-01T06:37:53;1.25;;;1.25;;
7799;SDS011;3944;47.984;7.960;2022-08-01T06:40:20;1.40;;;1.08;;
7799;SDS011;3944;47.984;7.960;2022-08-01T06:42:47;1.17;;;1.15;;
7799;SDS011;3944;47.984;7.960;2022-08-01T06:45:14;2.85;;;1.73;;
7799;SDS011;3944;47.984;7.960;2022-08-01T06:47:43;1.33;;;1.23;;
7799;SDS011;3944;47.984;7.960;2022-08-01T06:50:11;2.63;;;1.80;;
7799;SDS011;3944;47.984;7.960;2022-08-01T06:52:39;1.73;;;1.63;;
7799;SDS011;3944;47.984;7.960;2022-08-01T06:55:07;1.58;;;1.48;;
7799;SDS011;3944;47.984;7.960;2022-08-01T06:57:34;1.92;;;1.75;;
7799;SDS011;3944;47.984;7.960;2022-08-01T07:00:02;2.15;;;2.05;;
7799;SDS011;3944;47.984;7.960;2022-08-01T07:02:31;2.85;;;1.58;;
7799;SDS011;3944;47.984;7.960;2022-08-01T07:04:59;1.88;;;1.70;;
7799;SDS011;3944;47.984;7.960;2022-08-01T07:07:26;1.23;;;1.23;;
7799;SDS011;3944;47.984;7.960;2022-08-01T07:09:53;1.40;;;1.30;;
7799;SDS011;3944;47.984;7.960;2022-08-01T07:12:19;1.73;;;1.63;;
7799;SDS011;3944;47.984;7.960;2022-08-01T07:14:46;1.00;;;1.00;;
7799;SDS011;3944;47.984;7.960;2022-08-01T07:17:13;1.75;;;1.48;;
7799;SDS011;3944;47.984;7.960;2022-08-01T07:19:40;1.45;;;1.35;;
7799;SDS011;3944;47.984;7.960;2022-08-01T07:22:08;1.52;;;1.42;;
7799;SDS011;3944;47.984;7.960;2022-08-01T07:24:35;1.42;;;1.33;;
7799;SDS011;3944;47.984;7.960;2022-08-01T07:27:02;1.30;;;1.20;;
7799;SDS011;3944;47.984;7.960;2022-08-01T07:29:29;1.55;;;1.45;;
7799;SDS011;3944;47.984;7.960;2022-08-01T07:31:57;1.92;;;1.48;;
7799;SDS011;3944;47.984;7.960;2022-08-01T07:34:24;1.13;;;1.13;;
7799;SDS011;3944;47.984;7.960;2022-08-01T07:36:51;1.60;;;1.50;;
7799;SDS011;3944;47.984;7.960;2022-08-01T07:39:20;1.50;;;1.40;;
7799;SDS011;3944;47.984;7.960;2022-08-01T07:41:47;1.85;;;1.60;;
7799;SDS011;3944;47.984;7.960;2022-08-01T07:44:14;1.52;;;1.42;;
7799;SDS011;3944;47.984;7.960;2022-08-01T07:46:41;2.60;;;2.17;;
7799;SDS011;3944;47.984;7.960;2022-08-01T07:49:08;1.75;;;1.63;;
7799;SDS011;3944;47.984;7.960;2022-08-01T07:51:34;1.50;;;1.40;;
7799;SDS011;3944;47.984;7.960;2022-08-01T07:54:01;1.55;;;1.45;;
7799;SDS011;3944;47.984;7.960;2022-08-01T07:56:29;1.70;;;1.60;;
7799;SDS011;3944;47.984;7.960;2022-08-01T07:58:56;2.20;;;2.00;;
7799;SDS011;3944;47.984;7.960;2022-08-01T08:01:23;1.60;;;1.50;;
7799;SDS011;3944;47.984;7.960;2022-08-01T08:03:50;1.20;;;1.13;;
7799;SDS011;3944;47.984;7.960;2022-08-01T08:06:17;1.23;;;1.13;;
7799;SDS011;3944;47.984;7.960;2022-08-01T08:08:44;1.38;;;1.27;;
7799;SDS011;3944;47.984;7.960;2022-08-01T08:11:10;1.90;;;1.40;;
7799;SDS011;3944;47.984;7.960;2022-08-01T08:13:39;1.40;;;1.30;;
7799;SDS011;3944;47.984;7.960;2022-08-01T08:16:05;1.80;;;1.17;;
7799;SDS011;3944;47.984;7.960;2022-08-01T08:18:32;1.52;;;1.42;;
7799;SDS011;3944;47.984;7.960;2022-08-01T08:20:59;1.65;;;1.55;;
7799;SDS011;3944;47.984;7.960;2022-08-01T08:23:26;1.27;;;1.17;;
7799;SDS011;3944;47.984;7.960;2022-08-01T08:26:10;2.13;;;1.67;;
7799;SDS011;3944;47.984;7.960;2022-08-01T08:28:38;1.10;;;1.10;;
7799;SDS011;3944;47.984;7.960;2022-08-01T08:31:05;0.80;;;0.80;;
7799;SDS011;3944;47.984;7.960;2022-08-01T08:33:33;1.58;;;1.48;;
7799;SDS011;3944;47.984;7.960;2022-08-01T08:35:59;1.85;;;1.38;;
7799;SDS011;3944;47.984;7.960;2022-08-01T08:38:26;1.58;;;1.48;;
7799;SDS011;3944;47.984;7.960;2022-08-01T08:40:53;1.92;;;1.75;;
7799;SDS011;3944;47.984;7.960;2022-08-01T08:43:20;1.10;;;1.10;;
7799;SDS011;3944;47.984;7.960;2022-08-01T08:45:51;1.42;;;1.15;;
7799;SDS011;3944;47.984;7.960;2022-08-01T08:48:18;1.73;;;1.63;;
7799;SDS011;3944;47.984;7.960;2022-08-01T08:50:45;1.50;;;1.40;;
7799;SDS011;3944;47.984;7.960;2022-08-01T08:53:14;1.10;;;1.10;;
7799;SDS011;3944;47.984;7.960;2022-08-01T08:55:42;1.00;;;1.00;;
7799;SDS011;3944;47.984;7.960;2022-08-01T08:58:10;2.55;;;1.13;;
7799;SDS011;3944;47.984;7.960;2022-08-01T09:00:38;1.00;;;1.00;;
7799;SDS011;3944;47.984;7.960;2022-08-01T09:03:07;1.40;;;1.30;;
7799;SDS011;3944;47.984;7.960;2022-08-01T09:05:34;1.02;;;1.02;;
7799;SDS011;3944;47.984;7.960;2022-08-01T09:08:01;2.00;;;1.15;;
7799;SDS011;3944;47.984;7.960;2022-08-01T09:10:28;1.13;;;1.02;;
7799;SDS011;3944;47.984;7.960;2022-08-01T09:13:07;1.38;;;1.27;;
7799;SDS011;3944;47.984;7.960;2022-08-01T09:15:39;1.00;;;1.00;;
7799;SDS011;3944;47.984;7.960;2022-08-01T09:21:13;1.73;;;1.10;;
7799;SDS011;3944;47.984;7.960;2022-08-01T09:23:43;2.58;;;1.25;;
7799;SDS011;3944;47.984;7.960;2022-08-01T09:26:12;0.90;;;0.90;;
7799;SDS011;3944;47.984;7.960;2022-08-01T09:28:40;1.10;;;1.10;;
7799;SDS011;3944;47.984;7.960;2022-08-01T09:31:08;0.50;;;0.50;;
7799;SDS011;3944;47.984;7.960;2022-08-01T09:33:48;4.18;;;1.20;;
7799;SDS011;3944;47.984;7.960;2022-08-01T09:36:17;1.35;;;1.25;;
7799;SDS011;3944;47.984;7.960;2022-08-01T09:38:44;1.25;;;1.25;;
7799;SDS011;3944;47.984;7.960;2022-08-01T09:41:11;1.30;;;1.17;;
7799;SDS011;3944;47.984;7.960;2022-08-01T09:43:38;0.98;;;0.98;;
7799;SDS011;3944;47.984;7.960;2022-08-01T09:46:08;0.98;;;0.98;;
7799;SDS011;3944;47.984;7.960;2022-08-01T09:48:37;1.10;;;1.10;;
7799;SDS011;3944;47.984;7.960;2022-08-01T09:51:06;1.05;;;1.00;;
7799;SDS011;3944;47.984;7.960;2022-08-01T09:53:42;0.88;;;0.88;;
7799;SDS011;3944;47.984;7.960;2022-08-01T09:56:11;1.90;;;1.35;;
7799;SDS011;3944;47.984;7.960;2022-08-01T09:58:52;1.13;;;1.10;;
7799;SDS011;3944;47.984;7.960;2022-08-01T10:01:20;1.30;;;1.23;;
7799;SDS011;3944;47.984;7.960;2022-08-01T10:03:59;2.47;;;1.15;;
7799;SDS011;3944;47.984;7.960;2022-08-01T10:06:36;0.88;;;0.88;;
7799;SDS011;3944;47.984;7.960;2022-08-01T10:09:03;0.80;;;0.80;;
7799;SDS011;3944;47.984;7.960;2022-08-01T10:11:31;1.02;;;1.02;;
7799;SDS011;3944;47.984;7.960;2022-08-01T10:14:04;1.38;;;1.27;;
7799;SDS011;3944;47.984;7.960;2022-08-01T10:16:32;1.00;;;1.00;;
7799;SDS011;3944;47.984;7.960;2022-08-01T10:19:01;0.98;;;0.98;;
7799;SDS011;3944;47.984;7.960;2022-08-01T10:21:28;1.05;;;1.05;;
7799;SDS011;3944;47.984;7.960;2022-08-01T10:23:59;1.30;;;1.20;;
7799;SDS011;3944;47.984;7.960;2022-08-01T10:26:29;1.05;;;1.05;;
7799;SDS011;3944;47.984;7.960;2022-08-01T10:28:59;4.93;;;0.98;;
7799;SDS011;3944;47.984;7.960;2022-08-01T10:31:28;0.93;;;0.82;;
7799;SDS011;3944;47.984;7.960;2022-08-01T10:33:59;1.10;;;1.10;;
7799;SDS011;3944;47.984;7.960;2022-08-01T10:36:27;0.93;;;0.90;;
7799;SDS011;3944;47.984;7.960;2022-08-01T10:38:55;1.05;;;1.05;;
7799;SDS011;3944;47.984;7.960;2022-08-01T10:41:24;0.85;;;0.85;;
7799;SDS011;3944;47.984;7.960;2022-08-01T10:43:54;2.22;;;1.20;;
7799;SDS011;3944;47.984;7.960;2022-08-01T10:46:21;1.38;;;1.20;;
7799;SDS011;3944;47.984;7.960;2022-08-01T10:48:49;1.30;;;1.20;;
7799;SDS011;3944;47.984;7.960;2022-08-01T10:51:21;1.05;;;0.95;;
7799;SDS011;3944;47.984;7.960;2022-08-01T10:53:50;0.90;;;0.88;;
7799;SDS011;3944;47.984;7.960;2022-08-01T10:56:18;1.10;;;1.02;;
7799;SDS011;3944;47.984;7.960;2022-08-01T10:58:47;0.90;;;0.90;;
7799;SDS011;3944;47.984;7.960;2022-08-01T11:01:15;2.97;;;1.20;;
7799;SDS011;3944;47.984;7.960;2022-08-01T11:03:58;0.90;;;0.90;;
7799;SDS011;3944;47.984;7.960;2022-08-01T11:06:35;1.05;;;1.05;;
7799;SDS011;3944;47.984;7.960;2022-08-01T11:09:15;1.30;;;1.20;;
7799;SDS011;3944;47.984;7.960;2022-08-01T11:11:59;1.85;;;1.38;;
7799;SDS011;3944;47.984;7.960;2022-08-01T11:14:31;0.80;;;0.80;;
7799;SDS011;3944;47.984;7.960;2022-08-01T11:20:08;0.90;;;0.90;;
7799;SDS011;3944;47.984;7.960;2022-08-01T11:31:39;0.90;;;0.90;;
7799;SDS011;3944;47.984;7.960;2022-08-01T11:34:06;2.83;;;1.02;;
7799;SDS011;3944;47.984;7.960;2022-08-01T11:36:33;0.70;;;0.70;;
7799;SDS011;3944;47.984;7.960;2022-08-01T11:39:13;0.77;;;0.77;;
7799;SDS011;3944;47.984;7.960;2022-08-01T11:41:42;0.90;;;0.90;;
7799;SDS011;3944;47.984;7.960;2022-08-01T11:44:11;1.20;;;1.20;;
7799;SDS011;3944;47.984;7.960;2022-08-01T11:46:55;0.73;;;0.73;;
7799;SDS011;3944;47.984;7.960;2022-08-01T11:49:29;0.80;;;0.80;;
7799;SDS011;3944;47.984;7.960;2022-08-01T11:52:03;1.00;;;1.00;;
7799;SDS011;3944;47.984;7.960;2022-08-01T11:54:32;1.55;;;1.00;;
7799;SDS011;3944;47.984;7.960;2022-08-01T11:57:00;0.90;;;0.90;;
7799;SDS011;3944;47.984;7.960;2022-08-01T11:59:34;0.82;;;0.82;;
7799;SDS011;3944;47.984;7.960;2022-08-01T12:02:04;0.70;;;0.70;;
7799;SDS011;3944;47.984;7.960;2022-08-01T12:04:45;0.85;;;0.85;;
7799;SDS011;3944;47.984;7.960;2022-08-01T12:07:13;3.40;;;0.82;;
7799;SDS011;3944;47.984;7.960;2022-08-01T12:09:41;1.00;;;1.00;;
7799;SDS011;3944;47.984;7.960;2022-08-01T12:12:08;0.82;;;0.82;;
7799;SDS011;3944;47.984;7.960;2022-08-01T12:14:35;0.60;;;0.60;;
7799;SDS011;3944;47.984;7.960;2022-08-01T12:17:04;3.60;;;1.30;;
7799;SDS011;3944;47.984;7.960;2022-08-01T12:19:31;1.00;;;1.00;;
7799;SDS011;3944;47.984;7.960;2022-08-01T12:22:07;0.70;;;0.70;;
7799;SDS011;3944;47.984;7.960;2022-08-01T12:24:36;0.70;;;0.70;;
7799;SDS011;3944;47.984;7.960;2022-08-01T12:27:04;1.88;;;1.27;;
7799;SDS011;3944;47.984;7.960;2022-08-01T12:29:33;1.10;;;1.00;;
7799;SDS011;3944;47.984;7.960;2022-08-01T12:32:01;0.82;;;0.82;;
7799;SDS011;3944;47.984;7.960;2022-08-01T12:34:29;1.80;;;1.70;;
7799;SDS011;3944;47.984;7.960;2022-08-01T12:37:00;0.93;;;0.93;;
7799;SDS011;3944;47.984;7.960;2022-08-01T12:39:34;0.85;;;0.85;;
7799;SDS011;3944;47.984;7.960;2022-08-01T12:42:01;2.35;;;1.40;;
7799;SDS011;3944;47.984;7.960;2022-08-01T12:44:32;0.95;;;0.95;;
7799;SDS011;3944;47.984;7.960;2022-08-01T12:47:00;1.70;;;1.02;;
7799;SDS011;3944;47.984;7.960;2022-08-01T12:49:30;1.00;;;1.00;;
7799;SDS011;3944;47.984;7.960;2022-08-01T12:51:58;0.50;;;0.50;;
7799;SDS011;3944;47.984;7.960;2022-08-01T12:54:25;0.60;;;0.60;;
7799;SDS011;3944;47.984;7.960;2022-08-01T12:56:52;0.95;;;0.95;;
7799;SDS011;3944;47.984;7.960;2022-08-01T12:59:19;0.93;;;0.93;;
7799;SDS011;3944;47.984;7.960;2022-08-01T13:01:51;1.08;;;1.08;;
7799;SDS011;3944;47.984;7.960;2022-08-01T13:04:19;1.00;;;1.00;;
7799;SDS011;3944;47.984;7.960;2022-08-01T13:06:48;0.98;;;0.98;;
7799;SDS011;3944;47.984;7.960;2022-08-01T13:09:19;1.60;;;1.20;;
7799;SDS011;3944;47.984;7.960;2022-08-01T13:11:46;0.98;;;0.98;;
7799;SDS011;3944;47.984;7.960;2022-08-01T13:14:25;1.38;;;1.23;;
7799;SDS011;3944;47.984;7.960;2022-08-01T13:16:53;1.45;;;1.35;;
7799;SDS011;3944;47.984;7.960;2022-08-01T13:19:20;2.75;;;1.08;;
7799;SDS011;3944;47.984;7.960;2022-08-01T13:22:08;2.13;;;1.05;;
7799;SDS011;3944;47.984;7.960;2022-08-01T13:24:35;0.75;;;0.75;;
7799;SDS011;3944;47.984;7.960;2022-08-01T13:27:03;1.35;;;1.08;;
7799;SDS011;3944;47.984;7.960;2022-08-01T13:29:31;0.90;;;0.77;;
7799;SDS011;3944;47.984;7.960;2022-08-01T13:31:58;1.40;;;1.30;;
7799;SDS011;3944;47.984;7.960;2022-08-01T13:34:31;0.70;;;0.70;;
7799;SDS011;3944;47.984;7.960;2022-08-01T13:36:59;1.20;;;1.10;;
7799;SDS011;3944;47.984;7.960;2022-08-01T13:39:28;1.08;;;0.98;;
7799;SDS011;3944;47.984;7.960;2022-08-01T13:42:09;1.25;;;1.17;;
7799;SDS011;3944;47.984;7.960;2022-08-01T13:44:37;0.98;;;0.98;;
7799;SDS011;3944;47.984;7.960;2022-08-01T13:47:04;1.15;;;0.80;;
7799;SDS011;3944;47.984;7.960;2022-08-01T13:49:31;1.50;;;1.40;;
7799;SDS011;3944;47.984;7.960;2022-08-01T13:51:59;1.35;;;1.10;;
7799;SDS011;3944;47.984;7.960;2022-08-01T13:54:29;1.52;;;1.42;;
7799;SDS011;3944;47.984;7.960;2022-08-01T13:56:56;1.17;;;1.10;;
7799;SDS011;3944;47.984;7.960;2022-08-01T13:59:23;2.22;;;0.85;;
7799;SDS011;3944;47.984;7.960;2022-08-01T14:01:50;0.80;;;0.80;;
7799;SDS011;3944;47.984;7.960;2022-08-01T14:04:17;0.93;;;0.85;;
7799;SDS011;3944;47.984;7.960;2022-08-01T14:06:46;1.08;;;1.08;;
7799;SDS011;3944;47.984;7.960;2022-08-01T14:09:13;1.05;;;1.05;;
7799;SDS011;3944;47.984;7.960;2022-08-01T14:11:43;0.80;;;0.80;;
7799;SDS011;3944;47.984;7.960;2022-08-01T14:14:10;0.82;;;0.82;;
7799;SDS011;3944;47.984;7.960;2022-08-01T14:16:37;1.30;;;1.20;;
7799;SDS011;3944;47.984;7.960;2022-08-01T14:19:04;1.25;;;1.15;;
7799;SDS011;3944;47.984;7.960;2022-08-01T14:21:31;1.08;;;0.88;;
7799;SDS011;3944;47.984;7.960;2022-08-01T14:23:58;0.90;;;0.90;;
7799;SDS011;3944;47.984;7.960;2022-08-01T14:26:25;1.00;;;0.98;;
7799;SDS011;3944;47.984;7.960;2022-08-01T14:28:53;1.20;;;1.10;;
7799;SDS011;3944;47.984;7.960;2022-08-01T14:31:20;1.55;;;1.17;;
7799;SDS011;3944;47.984;7.960;2022-08-01T14:33:47;1.45;;;1.30;;
7799;SDS011;3944;47.984;7.960;2022-08-01T14:36:13;0.77;;;0.77;;
7799;SDS011;3944;47.984;7.960;2022-08-01T14:38:40;1.40;;;1.00;;
7799;SDS011;3944;47.984;7.960;2022-08-01T14:41:07;1.38;;;1.27;;
7799;SDS011;3944;47.984;7.960;2022-08-01T14:43:34;1.73;;;1.20;;
7799;SDS011;3944;47.984;7.960;2022-08-01T14:46:02;0.90;;;0.90;;
7799;SDS011;3944;47.984;7.960;2022-08-01T14:48:29;1.63;;;1.52;;
7799;SDS011;3944;47.984;7.960;2022-08-01T14:50:56;1.15;;;1.05;;
7799;SDS011;3944;47.984;7.960;2022-08-01T14:53:27;0.82;;;0.82;;
7799;SDS011;3944;47.984;7.960;2022-08-01T14:55:54;0.80;;;0.80;;
7799;SDS011;3944;47.984;7.960;2022-08-01T14:58:21;1.33;;;0.95;;
7799;SDS011;3944;47.984;7.960;2022-08-01T15:00:48;1.63;;;1.35;;
7799;SDS011;3944;47.984;7.960;2022-08-01T15:03:16;1.52;;;1.42;;
7799;SDS011;3944;47.984;7.960;2022-08-01T15:05:43;1.70;;;1.40;;
7799;SDS011;3944;47.984;7.960;2022-08-01T15:08:09;1.10;;;1.08;;
7799;SDS011;3944;47.984;7.960;2022-08-01T15:10:36;1.13;;;1.10;;
7799;SDS011;3944;47.984;7.960;2022-08-01T15:13:03;1.10;;;1.10;;
7799;SDS011;3944;47.984;7.960;2022-08-01T15:15:30;0.90;;;0.90;;
7799;SDS011;3944;47.984;7.960;2022-08-01T15:17:57;1.10;;;1.00;;
7799;SDS011;3944;47.984;7.960;2022-08-01T15:20:25;1.08;;;1.00;;
7799;SDS011;3944;47.984;7.960;2022-08-01T15:22:52;1.58;;;1.27;;
7799;SDS011;3944;47.984;7.960;2022-08-01T15:25:19;0.98;;;0.95;;
7799;SDS011;3944;47.984;7.960;2022-08-01T15:27:47;1.65;;;1.55;;
7799;SDS011;3944;47.984;7.960;2022-08-01T15:30:13;1.13;;;1.02;;
7799;SDS011;3944;47.984;7.960;2022-08-01T15:32:40;0.80;;;0.80;;
7799;SDS011;3944;47.984;7.960;2022-08-01T15:35:08;2.03;;;1.52;;
7799;SDS011;3944;47.984;7.960;2022-08-01T15:37:37;1.85;;;1.67;;
7799;SDS011;3944;47.984;7.960;2022-08-01T15:40:04;0.82;;;0.82;;